sensor_id;sensor_type;location;lat;lon;timestamp;pressure;altitude;pressure_sealevel;temperature;humidity
62948;BME280;51940;52.126;-0.994;2022-08-19T00:00:12;100160.99;;;18.80;79.76
62948;BME280;51940;52.126;-0.994;2022-08-19T00:02:40;100158.20;;;18.81;79.80
62948;BME280;51940;52.126;-0.994;2022-08-19T00:05:08;100157.42;;;18.82;79.90
62948;BME280;51940;52.126;-0.994;2022-08-19T00:07:35;100157.41;;;18.82;79.80
62948;BME280;51940;52.126;-0.994;2022-08-19T00:10:00;100157.46;;;18.82;79.87
62948;BME280;51940;52.126;-0.994;2022-08-19T00:12:26;100158.21;;;18.81;79.90
62948;BME280;51940;52.126;-0.994;2022-08-19T00:14:52;100162.26;;;18.80;80.11
62948;BME280;51940;52.126;-0.994;2022-08-19T00:17:20;100159.23;;;18.79;80.31
62948;BME280;51940;52.126;-0.994;2022-08-19T00:19:45;100156.19;;;18.78;80.22
62948;BME280;51940;52.126;-0.994;2022-08-19T00:22:11;100146.69;;;18.77;80.23
62948;BME280;51940;52.126;-0.994;2022-08-19T00:24:37;100147.22;;;18.75;80.20
62948;BME280;51940;52.126;-0.994;2022-08-19T00:27:04;100147.88;;;18.73;80.31
62948;BME280;51940;52.126;-0.994;2022-08-19T00:29:30;100147.95;;;18.72;80.24
62948;BME280;51940;52.126;-0.994;2022-08-19T00:31:57;100150.09;;;18.69;80.24
62948;BME280;51940;52.126;-0.994;2022-08-19T00:34:24;100154.91;;;18.67;80.52
62948;BME280;51940;52.126;-0.994;2022-08-19T00:36:50;100159.65;;;18.66;80.52
62948;BME280;51940;52.126;-0.994;2022-08-19T00:39:16;100158.79;;;18.66;80.70
62948;BME280;51940;52.126;-0.994;2022-08-19T00:41:43;100161.45;;;18.67;80.90
62948;BME280;51940;52.126;-0.994;2022-08-19T00:44:14;100159.63;;;18.67;80.93
62948;BME280;51940;52.126;-0.994;2022-08-19T00:46:45;100158.66;;;18.65;81.16
62948;BME280;51940;52.126;-0.994;2022-08-19T00:51:53;100160.48;;;18.61;81.19
62948;BME280;51940;52.126;-0.994;2022-08-19T00:54:21;100155.95;;;18.61;81.25
62948;BME280;51940;52.126;-0.994;2022-08-19T00:56:47;100154.70;;;18.61;81.25
62948;BME280;51940;52.126;-0.994;2022-08-19T00:59:15;100151.40;;;18.62;81.29
62948;BME280;51940;52.126;-0.994;2022-08-19T01:01:42;100150.10;;;18.63;81.51
62948;BME280;51940;52.126;-0.994;2022-08-19T01:04:09;100149.73;;;18.63;81.41
62948;BME280;51940;52.126;-0.994;2022-08-19T01:06:37;100150.11;;;18.62;81.48
62948;BME280;51940;52.126;-0.994;2022-08-19T01:09:04;100153.96;;;18.61;81.52
62948;BME280;51940;52.126;-0.994;2022-08-19T01:11:32;100156.37;;;18.60;81.51
62948;BME280;51940;52.126;-0.994;2022-08-19T01:13:59;100160.98;;;18.61;81.54
62948;BME280;51940;52.126;-0.994;2022-08-19T01:16:27;100153.77;;;18.61;81.50
62948;BME280;51940;52.126;-0.994;2022-08-19T01:18:54;100152.86;;;18.61;81.45
62948;BME280;51940;52.126;-0.994;2022-08-19T01:21:43;100156.06;;;18.62;81.71
62948;BME280;51940;52.126;-0.994;2022-08-19T01:24:11;100153.73;;;18.62;81.38
62948;BME280;51940;52.126;-0.994;2022-08-19T01:26:42;100157.02;;;18.61;81.49
62948;BME280;51940;52.126;-0.994;2022-08-19T01:29:09;100154.60;;;18.60;81.65
62948;BME280;51940;52.126;-0.994;2022-08-19T01:31:36;100154.47;;;18.59;81.48
62948;BME280;51940;52.126;-0.994;2022-08-19T01:34:03;100147.60;;;18.59;81.66
62948;BME280;51940;52.126;-0.994;2022-08-19T01:38:54;100156.12;;;18.58;81.44
62948;BME280;51940;52.126;-0.994;2022-08-19T01:41:20;100156.27;;;18.59;81.50
62948;BME280;51940;52.126;-0.994;2022-08-19T01:43:48;100156.29;;;18.59;81.52
62948;BME280;51940;52.126;-0.994;2022-08-19T01:46:15;100145.36;;;18.57;81.60
62948;BME280;51940;52.126;-0.994;2022-08-19T01:48:41;100149.40;;;18.56;81.75
62948;BME280;51940;52.126;-0.994;2022-08-19T01:51:08;100147.88;;;18.55;81.65
62948;BME280;51940;52.126;-0.994;2022-08-19T01:53:35;100146.46;;;18.54;81.82
62948;BME280;51940;52.126;-0.994;2022-08-19T01:56:00;100149.17;;;18.54;81.89
62948;BME280;51940;52.126;-0.994;2022-08-19T01:58:32;100152.80;;;18.53;82.06
62948;BME280;51940;52.126;-0.994;2022-08-19T02:01:02;100152.08;;;18.54;81.96
62948;BME280;51940;52.126;-0.994;2022-08-19T02:03:27;100150.98;;;18.54;81.90
62948;BME280;51940;52.126;-0.994;2022-08-19T02:06:01;100149.20;;;18.54;81.85
62948;BME280;51940;52.126;-0.994;2022-08-19T02:08:31;100150.80;;;18.54;82.09
62948;BME280;51940;52.126;-0.994;2022-08-19T02:10:57;100150.45;;;18.54;81.91
62948;BME280;51940;52.126;-0.994;2022-08-19T02:13:24;100154.57;;;18.55;81.77
62948;BME280;51940;52.126;-0.994;2022-08-19T02:15:50;100149.00;;;18.54;82.04
62948;BME280;51940;52.126;-0.994;2022-08-19T02:18:15;100153.75;;;18.53;82.17
62948;BME280;51940;52.126;-0.994;2022-08-19T02:20:42;100158.52;;;18.52;82.30
62948;BME280;51940;52.126;-0.994;2022-08-19T02:23:08;100158.16;;;18.52;82.34
62948;BME280;51940;52.126;-0.994;2022-08-19T02:25:34;100159.77;;;18.52;82.27
62948;BME280;51940;52.126;-0.994;2022-08-19T02:27:59;100159.71;;;18.53;82.24
62948;BME280;51940;52.126;-0.994;2022-08-19T02:30:25;100161.97;;;18.55;82.16
62948;BME280;51940;52.126;-0.994;2022-08-19T02:32:51;100160.84;;;18.55;82.43
62948;BME280;51940;52.126;-0.994;2022-08-19T02:35:17;100160.84;;;18.55;82.62
62948;BME280;51940;52.126;-0.994;2022-08-19T02:37:42;100158.96;;;18.53;82.99
62948;BME280;51940;52.126;-0.994;2022-08-19T02:40:28;100158.65;;;18.50;83.40
62948;BME280;51940;52.126;-0.994;2022-08-19T02:42:54;100158.11;;;18.47;83.72
62948;BME280;51940;52.126;-0.994;2022-08-19T02:45:20;100158.57;;;18.45;83.95
62948;BME280;51940;52.126;-0.994;2022-08-19T02:47:45;100163.84;;;18.42;84.26
62948;BME280;51940;52.126;-0.994;2022-08-19T02:50:11;100161.73;;;18.38;84.66
62948;BME280;51940;52.126;-0.994;2022-08-19T02:52:36;100159.90;;;18.32;85.02
62948;BME280;51940;52.126;-0.994;2022-08-19T02:55:03;100161.30;;;18.27;85.32
62948;BME280;51940;52.126;-0.994;2022-08-19T02:57:30;100160.45;;;18.23;85.65
62948;BME280;51940;52.126;-0.994;2022-08-19T02:59:57;100162.64;;;18.19;85.89
62948;BME280;51940;52.126;-0.994;2022-08-19T03:02:22;100168.56;;;18.17;86.16
62948;BME280;51940;52.126;-0.994;2022-08-19T03:04:47;100167.03;;;18.16;86.34
62948;BME280;51940;52.126;-0.994;2022-08-19T03:07:14;100170.31;;;18.15;86.44
62948;BME280;51940;52.126;-0.994;2022-08-19T03:09:40;100168.15;;;18.15;86.54
62948;BME280;51940;52.126;-0.994;2022-08-19T03:12:07;100161.14;;;18.17;86.52
62948;BME280;51940;52.126;-0.994;2022-08-19T03:14:33;100162.52;;;18.18;86.61
62948;BME280;51940;52.126;-0.994;2022-08-19T03:16:59;100162.67;;;18.19;86.77
62948;BME280;51940;52.126;-0.994;2022-08-19T03:19:24;100164.48;;;18.19;86.81
62948;BME280;51940;52.126;-0.994;2022-08-19T03:21:50;100165.64;;;18.18;86.81
62948;BME280;51940;52.126;-0.994;2022-08-19T03:24:17;100170.44;;;18.16;87.05
62948;BME280;51940;52.126;-0.994;2022-08-19T03:26:46;100171.52;;;18.13;87.09
62948;BME280;51940;52.126;-0.994;2022-08-19T03:29:13;100174.02;;;18.10;87.37
62948;BME280;51940;52.126;-0.994;2022-08-19T03:31:41;100177.88;;;18.06;87.54
62948;BME280;51940;52.126;-0.994;2022-08-19T03:34:09;100180.02;;;18.03;87.85
62948;BME280;51940;52.126;-0.994;2022-08-19T03:36:37;100177.95;;;18.01;87.92
62948;BME280;51940;52.126;-0.994;2022-08-19T03:39:03;100175.39;;;18.02;87.85
62948;BME280;51940;52.126;-0.994;2022-08-19T03:41:37;100172.43;;;18.00;87.64
62948;BME280;51940;52.126;-0.994;2022-08-19T03:44:03;100169.56;;;17.97;87.72
62948;BME280;51940;52.126;-0.994;2022-08-19T03:46:35;100170.25;;;17.94;87.30
62948;BME280;51940;52.126;-0.994;2022-08-19T03:49:03;100173.54;;;17.91;87.18
62948;BME280;51940;52.126;-0.994;2022-08-19T03:51:35;100178.45;;;17.87;87.04
62948;BME280;51940;52.126;-0.994;2022-08-19T03:54:05;100181.73;;;17.83;86.94
62948;BME280;51940;52.126;-0.994;2022-08-19T03:56:35;100186.25;;;17.80;86.89
62948;BME280;51940;52.126;-0.994;2022-08-19T03:59:03;100190.98;;;17.76;86.95
62948;BME280;51940;52.126;-0.994;2022-08-19T04:01:29;100198.52;;;17.74;86.94
62948;BME280;51940;52.126;-0.994;2022-08-19T04:03:59;100197.83;;;17.70;86.80
62948;BME280;51940;52.126;-0.994;2022-08-19T04:06:26;100194.31;;;17.67;86.84
62948;BME280;51940;52.126;-0.994;2022-08-19T04:08:54;100189.96;;;17.65;86.90
62948;BME280;51940;52.126;-0.994;2022-08-19T04:11:26;100183.02;;;17.63;87.05
62948;BME280;51940;52.126;-0.994;2022-08-19T04:13:53;100181.02;;;17.60;87.06
62948;BME280;51940;52.126;-0.994;2022-08-19T04:16:21;100177.91;;;17.58;87.11
62948;BME280;51940;52.126;-0.994;2022-08-19T04:18:47;100182.98;;;17.55;86.96
62948;BME280;51940;52.126;-0.994;2022-08-19T04:21:23;100185.11;;;17.48;87.01
62948;BME280;51940;52.126;-0.994;2022-08-19T04:23:49;100185.58;;;17.43;87.09
62948;BME280;51940;52.126;-0.994;2022-08-19T04:26:18;100187.98;;;17.39;87.17
62948;BME280;51940;52.126;-0.994;2022-08-19T04:28:45;100193.79;;;17.35;87.04
62948;BME280;51940;52.126;-0.994;2022-08-19T04:31:15;100198.03;;;17.30;87.07
62948;BME280;51940;52.126;-0.994;2022-08-19T04:33:41;100207.41;;;17.27;87.21
62948;BME280;51940;52.126;-0.994;2022-08-19T04:36:07;100210.94;;;17.25;87.17
62948;BME280;51940;52.126;-0.994;2022-08-19T04:38:35;100215.65;;;17.21;87.18
62948;BME280;51940;52.126;-0.994;2022-08-19T04:41:02;100215.55;;;17.16;87.41
62948;BME280;51940;52.126;-0.994;2022-08-19T04:43:46;100213.18;;;17.13;87.57
62948;BME280;51940;52.126;-0.994;2022-08-19T04:46:15;100219.22;;;17.12;87.67
62948;BME280;51940;52.126;-0.994;2022-08-19T04:48:42;100219.48;;;17.13;87.60
62948;BME280;51940;52.126;-0.994;2022-08-19T04:51:11;100222.08;;;17.12;87.46
62948;BME280;51940;52.126;-0.994;2022-08-19T04:53:40;100226.94;;;17.12;87.43
62948;BME280;51940;52.126;-0.994;2022-08-19T04:56:12;100222.70;;;17.11;87.36
62948;BME280;51940;52.126;-0.994;2022-08-19T04:58:40;100224.23;;;17.09;87.28
62948;BME280;51940;52.126;-0.994;2022-08-19T05:01:18;100221.55;;;17.02;87.44
62948;BME280;51940;52.126;-0.994;2022-08-19T05:03:44;100220.71;;;16.98;87.53
62948;BME280;51940;52.126;-0.994;2022-08-19T05:06:13;100224.39;;;16.93;87.58
62948;BME280;51940;52.126;-0.994;2022-08-19T05:08:40;100228.27;;;16.90;87.85
62948;BME280;51940;52.126;-0.994;2022-08-19T05:11:29;100232.30;;;16.93;87.85
62948;BME280;51940;52.126;-0.994;2022-08-19T05:13:56;100229.52;;;16.95;87.75
62948;BME280;51940;52.126;-0.994;2022-08-19T05:16:23;100235.46;;;16.98;87.76
62948;BME280;51940;52.126;-0.994;2022-08-19T05:18:50;100242.81;;;17.02;87.61
62948;BME280;51940;52.126;-0.994;2022-08-19T05:21:35;100256.09;;;17.13;87.69
62948;BME280;51940;52.126;-0.994;2022-08-19T05:24:21;100260.38;;;17.24;87.19
62948;BME280;51940;52.126;-0.994;2022-08-19T05:26:49;100258.19;;;17.38;86.96
62948;BME280;51940;52.126;-0.994;2022-08-19T05:29:17;100262.59;;;17.98;86.26
62948;BME280;51940;52.126;-0.994;2022-08-19T05:31:43;100260.96;;;19.00;83.96
62948;BME280;51940;52.126;-0.994;2022-08-19T05:34:10;100249.59;;;20.16;81.28
62948;BME280;51940;52.126;-0.994;2022-08-19T05:36:39;100253.89;;;21.39;77.91
62948;BME280;51940;52.126;-0.994;2022-08-19T05:39:12;100254.89;;;21.51;75.93
62948;BME280;51940;52.126;-0.994;2022-08-19T05:41:46;100254.22;;;21.03;76.12
62948;BME280;51940;52.126;-0.994;2022-08-19T05:44:13;100261.02;;;20.62;76.02
62948;BME280;51940;52.126;-0.994;2022-08-19T05:46:39;100256.84;;;20.27;76.70
62948;BME280;51940;52.126;-0.994;2022-08-19T05:49:06;100260.21;;;20.01;76.77
62948;BME280;51940;52.126;-0.994;2022-08-19T05:51:34;100259.85;;;19.82;77.26
62948;BME280;51940;52.126;-0.994;2022-08-19T05:54:02;100264.98;;;19.63;77.37
62948;BME280;51940;52.126;-0.994;2022-08-19T05:56:28;100264.46;;;19.63;77.35
62948;BME280;51940;52.126;-0.994;2022-08-19T05:58:55;100263.90;;;21.33;74.53
62948;BME280;51940;52.126;-0.994;2022-08-19T06:01:20;100261.26;;;23.17;69.89
62948;BME280;51940;52.126;-0.994;2022-08-19T06:03:46;100266.75;;;24.69;66.91
62948;BME280;51940;52.126;-0.994;2022-08-19T06:06:18;100270.50;;;24.33;65.64
62948;BME280;51940;52.126;-0.994;2022-08-19T06:08:44;100271.87;;;23.72;66.02
62948;BME280;51940;52.126;-0.994;2022-08-19T06:11:24;100277.33;;;24.62;64.66
62948;BME280;51940;52.126;-0.994;2022-08-19T06:13:52;100279.48;;;26.05;61.79
62948;BME280;51940;52.126;-0.994;2022-08-19T06:16:19;100276.47;;;25.38;61.60
62948;BME280;51940;52.126;-0.994;2022-08-19T06:18:48;100276.57;;;24.41;62.61
62948;BME280;51940;52.126;-0.994;2022-08-19T06:21:14;100281.46;;;23.66;63.93
62948;BME280;51940;52.126;-0.994;2022-08-19T06:23:40;100282.05;;;23.06;64.83
62948;BME280;51940;52.126;-0.994;2022-08-19T06:26:05;100281.05;;;22.95;65.14
62948;BME280;51940;52.126;-0.994;2022-08-19T06:28:31;100289.17;;;22.84;65.22
62948;BME280;51940;52.126;-0.994;2022-08-19T06:30:58;100287.38;;;22.74;65.19
62948;BME280;51940;52.126;-0.994;2022-08-19T06:33:23;100287.33;;;22.68;65.50
62948;BME280;51940;52.126;-0.994;2022-08-19T06:35:49;100290.34;;;22.59;65.64
62948;BME280;51940;52.126;-0.994;2022-08-19T06:38:14;100291.56;;;22.47;66.13
62948;BME280;51940;52.126;-0.994;2022-08-19T06:40:40;100297.20;;;22.38;66.54
62948;BME280;51940;52.126;-0.994;2022-08-19T06:43:06;100296.90;;;22.30;66.57
62948;BME280;51940;52.126;-0.994;2022-08-19T06:45:31;100298.98;;;22.24;66.49
62948;BME280;51940;52.126;-0.994;2022-08-19T06:47:56;100297.23;;;22.13;66.19
62948;BME280;51940;52.126;-0.994;2022-08-19T06:50:23;100304.05;;;21.99;66.40
62948;BME280;51940;52.126;-0.994;2022-08-19T06:52:49;100303.15;;;21.93;66.88
62948;BME280;51940;52.126;-0.994;2022-08-19T06:55:14;100300.40;;;21.79;66.87
62948;BME280;51940;52.126;-0.994;2022-08-19T06:57:41;100303.67;;;21.74;67.64
62948;BME280;51940;52.126;-0.994;2022-08-19T07:00:09;100305.13;;;21.81;67.51
62948;BME280;51940;52.126;-0.994;2022-08-19T07:02:42;100304.37;;;21.87;67.03
62948;BME280;51940;52.126;-0.994;2022-08-19T07:05:08;100310.48;;;21.83;66.58
62948;BME280;51940;52.126;-0.994;2022-08-19T07:07:34;100313.16;;;21.83;66.56
62948;BME280;51940;52.126;-0.994;2022-08-19T07:10:00;100316.42;;;21.73;66.00
62948;BME280;51940;52.126;-0.994;2022-08-19T07:12:28;100321.27;;;21.51;65.94
62948;BME280;51940;52.126;-0.994;2022-08-19T07:14:54;100322.08;;;21.27;65.98
62948;BME280;51940;52.126;-0.994;2022-08-19T07:17:19;100325.80;;;21.17;65.52
62948;BME280;51940;52.126;-0.994;2022-08-19T07:19:45;100330.64;;;21.10;66.18
62948;BME280;51940;52.126;-0.994;2022-08-19T07:22:11;100331.21;;;21.04;66.31
62948;BME280;51940;52.126;-0.994;2022-08-19T07:24:37;100334.00;;;20.98;66.34
62948;BME280;51940;52.126;-0.994;2022-08-19T07:27:04;100331.67;;;20.95;66.71
62948;BME280;51940;52.126;-0.994;2022-08-19T07:29:32;100334.45;;;21.00;66.77
62948;BME280;51940;52.126;-0.994;2022-08-19T07:31:59;100339.48;;;21.00;66.73
62948;BME280;51940;52.126;-0.994;2022-08-19T07:34:27;100346.59;;;21.02;66.46
62948;BME280;51940;52.126;-0.994;2022-08-19T07:36:54;100347.81;;;21.08;65.93
62948;BME280;51940;52.126;-0.994;2022-08-19T07:39:28;100349.25;;;21.11;66.02
62948;BME280;51940;52.126;-0.994;2022-08-19T07:41:56;100349.88;;;21.15;65.58
62948;BME280;51940;52.126;-0.994;2022-08-19T07:44:23;100353.23;;;21.03;64.84
62948;BME280;51940;52.126;-0.994;2022-08-19T07:46:53;100357.97;;;20.84;64.26
62948;BME280;51940;52.126;-0.994;2022-08-19T07:49:21;100359.54;;;20.53;64.52
62948;BME280;51940;52.126;-0.994;2022-08-19T07:51:53;100354.31;;;20.41;65.84
62948;BME280;51940;52.126;-0.994;2022-08-19T07:54:21;100357.27;;;20.37;65.11
62948;BME280;51940;52.126;-0.994;2022-08-19T07:56:47;100359.41;;;20.35;65.32
62948;BME280;51940;52.126;-0.994;2022-08-19T07:59:14;100361.20;;;20.41;65.13
62948;BME280;51940;52.126;-0.994;2022-08-19T08:01:43;100367.67;;;20.42;64.38
62948;BME280;51940;52.126;-0.994;2022-08-19T08:04:09;100371.67;;;20.30;64.48
62948;BME280;51940;52.126;-0.994;2022-08-19T08:06:53;100378.47;;;20.28;64.58
62948;BME280;51940;52.126;-0.994;2022-08-19T08:09:40;100381.36;;;20.28;64.09
62948;BME280;51940;52.126;-0.994;2022-08-19T08:12:10;100382.14;;;20.25;63.30
62948;BME280;51940;52.126;-0.994;2022-08-19T08:14:46;100383.41;;;20.25;63.08
62948;BME280;51940;52.126;-0.994;2022-08-19T08:17:14;100385.40;;;20.22;61.58
62948;BME280;51940;52.126;-0.994;2022-08-19T08:19:41;100389.88;;;20.17;62.36
62948;BME280;51940;52.126;-0.994;2022-08-19T08:22:08;100390.69;;;20.19;61.70
62948;BME280;51940;52.126;-0.994;2022-08-19T08:24:53;100391.02;;;20.17;61.05
62948;BME280;51940;52.126;-0.994;2022-08-19T08:27:19;100386.40;;;20.18;61.36
62948;BME280;51940;52.126;-0.994;2022-08-19T08:29:45;100385.86;;;20.23;60.94
62948;BME280;51940;52.126;-0.994;2022-08-19T08:32:10;100387.10;;;20.33;61.86
62948;BME280;51940;52.126;-0.994;2022-08-19T08:34:36;100387.27;;;20.50;60.43
62948;BME280;51940;52.126;-0.994;2022-08-19T08:37:02;100385.37;;;20.54;59.09
62948;BME280;51940;52.126;-0.994;2022-08-19T08:39:28;100387.65;;;20.52;59.73
62948;BME280;51940;52.126;-0.994;2022-08-19T08:44:32;100399.23;;;20.66;58.30
62948;BME280;51940;52.126;-0.994;2022-08-19T08:47:09;100402.38;;;20.68;57.36
62948;BME280;51940;52.126;-0.994;2022-08-19T08:49:48;100396.91;;;20.68;57.11
62948;BME280;51940;52.126;-0.994;2022-08-19T08:54:50;100396.55;;;20.74;57.81
62948;BME280;51940;52.126;-0.994;2022-08-19T08:57:39;100395.60;;;20.88;57.27
62948;BME280;51940;52.126;-0.994;2022-08-19T09:00:18;100392.05;;;21.01;56.67
62948;BME280;51940;52.126;-0.994;2022-08-19T09:02:44;100395.39;;;21.13;55.62
62948;BME280;51940;52.126;-0.994;2022-08-19T09:05:10;100403.02;;;21.15;54.15
62948;BME280;51940;52.126;-0.994;2022-08-19T09:07:56;100402.92;;;21.11;53.84
62948;BME280;51940;52.126;-0.994;2022-08-19T09:13:07;100398.55;;;21.14;54.42
62948;BME280;51940;52.126;-0.994;2022-08-19T09:15:52;100402.42;;;21.27;53.78
62948;BME280;51940;52.126;-0.994;2022-08-19T09:18:19;100406.84;;;21.31;52.74
62948;BME280;51940;52.126;-0.994;2022-08-19T09:20:45;100406.08;;;21.37;51.90
62948;BME280;51940;52.126;-0.994;2022-08-19T09:23:12;100405.34;;;21.46;51.10
62948;BME280;51940;52.126;-0.994;2022-08-19T09:25:38;100402.95;;;21.54;50.84
62948;BME280;51940;52.126;-0.994;2022-08-19T09:28:05;100404.16;;;21.60;49.72
62948;BME280;51940;52.126;-0.994;2022-08-19T09:30:40;100407.33;;;21.66;50.21
62948;BME280;51940;52.126;-0.994;2022-08-19T09:33:06;100410.83;;;21.79;48.76
62948;BME280;51940;52.126;-0.994;2022-08-19T09:35:32;100406.67;;;21.71;48.12
62948;BME280;51940;52.126;-0.994;2022-08-19T09:37:59;100407.48;;;21.72;48.89
62948;BME280;51940;52.126;-0.994;2022-08-19T09:40:27;100408.63;;;21.79;48.01
62948;BME280;51940;52.126;-0.994;2022-08-19T09:42:53;100410.91;;;21.90;47.05
62948;BME280;51940;52.126;-0.994;2022-08-19T09:45:21;100414.30;;;21.91;46.08
62948;BME280;51940;52.126;-0.994;2022-08-19T09:47:52;100417.05;;;21.88;45.93
62948;BME280;51940;52.126;-0.994;2022-08-19T09:50:17;100418.98;;;21.86;46.52
62948;BME280;51940;52.126;-0.994;2022-08-19T09:52:44;100416.58;;;21.97;45.43
62948;BME280;51940;52.126;-0.994;2022-08-19T09:55:10;100413.73;;;22.00;44.32
62948;BME280;51940;52.126;-0.994;2022-08-19T09:57:37;100409.64;;;22.03;44.27
62948;BME280;51940;52.126;-0.994;2022-08-19T10:00:06;100409.65;;;22.11;44.51
62948;BME280;51940;52.126;-0.994;2022-08-19T10:02:32;100416.42;;;22.28;44.36
62948;BME280;51940;52.126;-0.994;2022-08-19T10:04:58;100416.55;;;22.51;44.75
62948;BME280;51940;52.126;-0.994;2022-08-19T10:07:42;100413.25;;;22.61;42.14
62948;BME280;51940;52.126;-0.994;2022-08-19T10:10:07;100414.92;;;22.56;41.99
62948;BME280;51940;52.126;-0.994;2022-08-19T10:12:35;100418.29;;;22.47;41.99
62948;BME280;51940;52.126;-0.994;2022-08-19T10:15:03;100412.52;;;22.49;41.57
62948;BME280;51940;52.126;-0.994;2022-08-19T10:17:29;100409.94;;;22.62;41.59
62948;BME280;51940;52.126;-0.994;2022-08-19T10:19:54;100413.64;;;22.73;40.72
62948;BME280;51940;52.126;-0.994;2022-08-19T10:22:20;100414.43;;;22.77;40.21
62948;BME280;51940;52.126;-0.994;2022-08-19T10:24:46;100409.69;;;22.72;39.22
62948;BME280;51940;52.126;-0.994;2022-08-19T10:27:12;100412.29;;;22.64;39.52
62948;BME280;51940;52.126;-0.994;2022-08-19T10:29:39;100417.22;;;22.71;40.69
62948;BME280;51940;52.126;-0.994;2022-08-19T10:32:07;100413.96;;;22.73;39.30
62948;BME280;51940;52.126;-0.994;2022-08-19T10:34:35;100414.36;;;22.66;40.03
62948;BME280;51940;52.126;-0.994;2022-08-19T10:37:02;100422.05;;;22.65;40.15
62948;BME280;51940;52.126;-0.994;2022-08-19T10:39:31;100419.27;;;22.66;39.87
62948;BME280;51940;52.126;-0.994;2022-08-19T10:41:57;100422.88;;;22.61;40.41
62948;BME280;51940;52.126;-0.994;2022-08-19T10:44:23;100426.05;;;22.63;40.44
62948;BME280;51940;52.126;-0.994;2022-08-19T10:46:49;100429.39;;;22.69;41.20
62948;BME280;51940;52.126;-0.994;2022-08-19T10:49:15;100430.16;;;22.68;40.28
62948;BME280;51940;52.126;-0.994;2022-08-19T10:51:41;100429.86;;;22.60;41.04
62948;BME280;51940;52.126;-0.994;2022-08-19T10:54:26;100436.69;;;22.62;40.59
62948;BME280;51940;52.126;-0.994;2022-08-19T10:57:12;100435.00;;;22.64;40.71
62948;BME280;51940;52.126;-0.994;2022-08-19T10:59:38;100429.16;;;22.65;40.75
62948;BME280;51940;52.126;-0.994;2022-08-19T11:02:06;100426.52;;;22.66;40.24
62948;BME280;51940;52.126;-0.994;2022-08-19T11:04:35;100421.34;;;22.67;40.29
62948;BME280;51940;52.126;-0.994;2022-08-19T11:07:01;100427.66;;;22.63;39.88
62948;BME280;51940;52.126;-0.994;2022-08-19T11:09:27;100433.45;;;22.56;40.58
62948;BME280;51940;52.126;-0.994;2022-08-19T11:11:53;100429.35;;;22.57;40.77
62948;BME280;51940;52.126;-0.994;2022-08-19T11:14:20;100419.52;;;22.60;41.11
62948;BME280;51940;52.126;-0.994;2022-08-19T11:16:47;100426.62;;;22.65;40.11
62948;BME280;51940;52.126;-0.994;2022-08-19T11:19:13;100424.02;;;22.58;40.61
62948;BME280;51940;52.126;-0.994;2022-08-19T11:21:41;100430.02;;;22.61;40.30
62948;BME280;51940;52.126;-0.994;2022-08-19T11:24:19;100426.30;;;22.49;40.57
62948;BME280;51940;52.126;-0.994;2022-08-19T11:26:46;100421.77;;;22.44;40.87
62948;BME280;51940;52.126;-0.994;2022-08-19T11:29:15;100423.23;;;22.46;40.39
62948;BME280;51940;52.126;-0.994;2022-08-19T11:31:43;100421.23;;;22.46;40.84
62948;BME280;51940;52.126;-0.994;2022-08-19T11:34:15;100420.15;;;22.51;40.65
62948;BME280;51940;52.126;-0.994;2022-08-19T11:36:43;100419.98;;;22.66;40.77
62948;BME280;51940;52.126;-0.994;2022-08-19T11:39:11;100417.60;;;22.73;40.72
62948;BME280;51940;52.126;-0.994;2022-08-19T11:41:38;100419.42;;;22.84;40.55
62948;BME280;51940;52.126;-0.994;2022-08-19T11:44:04;100415.63;;;22.93;40.63
62948;BME280;51940;52.126;-0.994;2022-08-19T11:46:30;100417.36;;;22.96;40.41
62948;BME280;51940;52.126;-0.994;2022-08-19T11:49:00;100412.51;;;22.98;40.84
62948;BME280;51940;52.126;-0.994;2022-08-19T11:51:27;100416.42;;;22.92;40.34
62948;BME280;51940;52.126;-0.994;2022-08-19T11:53:53;100412.55;;;22.80;40.60
62948;BME280;51940;52.126;-0.994;2022-08-19T11:56:20;100417.40;;;22.69;40.51
62948;BME280;51940;52.126;-0.994;2022-08-19T11:58:46;100414.66;;;22.69;40.63
62948;BME280;51940;52.126;-0.994;2022-08-19T12:01:14;100417.59;;;22.74;40.49
62948;BME280;51940;52.126;-0.994;2022-08-19T12:03:42;100415.11;;;22.68;40.29
62948;BME280;51940;52.126;-0.994;2022-08-19T12:06:12;100424.16;;;22.57;40.66
62948;BME280;51940;52.126;-0.994;2022-08-19T12:08:39;100423.45;;;22.48;40.29
62948;BME280;51940;52.126;-0.994;2022-08-19T12:11:06;100415.61;;;22.41;41.14
62948;BME280;51940;52.126;-0.994;2022-08-19T12:13:35;100419.33;;;22.45;41.27
62948;BME280;51940;52.126;-0.994;2022-08-19T12:16:10;100419.95;;;22.54;41.05
62948;BME280;51940;52.126;-0.994;2022-08-19T12:18:38;100417.48;;;22.60;40.50
62948;BME280;51940;52.126;-0.994;2022-08-19T12:21:03;100412.04;;;22.72;40.78
62948;BME280;51940;52.126;-0.994;2022-08-19T12:23:29;100413.57;;;22.84;40.31
62948;BME280;51940;52.126;-0.994;2022-08-19T12:25:56;100413.69;;;22.80;39.69
62948;BME280;51940;52.126;-0.994;2022-08-19T12:28:23;100410.55;;;22.66;39.92
62948;BME280;51940;52.126;-0.994;2022-08-19T12:30:50;100409.40;;;22.74;40.32
62948;BME280;51940;52.126;-0.994;2022-08-19T12:33:18;100415.84;;;22.88;40.38
62948;BME280;51940;52.126;-0.994;2022-08-19T12:35:48;100417.73;;;22.98;39.77
62948;BME280;51940;52.126;-0.994;2022-08-19T12:38:14;100417.23;;;23.08;39.81
62948;BME280;51940;52.126;-0.994;2022-08-19T12:40:40;100417.72;;;23.14;39.48
62948;BME280;51940;52.126;-0.994;2022-08-19T12:43:09;100412.45;;;23.16;39.40
62948;BME280;51940;52.126;-0.994;2022-08-19T12:45:36;100418.98;;;23.11;38.61
62948;BME280;51940;52.126;-0.994;2022-08-19T12:48:03;100417.55;;;23.05;38.73
62948;BME280;51940;52.126;-0.994;2022-08-19T12:50:28;100420.34;;;23.07;38.82
62948;BME280;51940;52.126;-0.994;2022-08-19T12:52:54;100424.38;;;23.10;38.70
62948;BME280;51940;52.126;-0.994;2022-08-19T12:55:19;100419.97;;;23.10;38.75
62948;BME280;51940;52.126;-0.994;2022-08-19T12:57:45;100420.31;;;23.17;38.75